Pinkstaff, Illinois
Current Conditions -  °F | °C
As of 4:53 PM on Monday 24 Nov 2014 (Local Time) from KLWV Reporting Station
Broken Clouds Broken Clouds  
Wind Chill: 34°   Ceiling: 5500
Heat Index: 41°   Visibility: 10mi
Dew Point: 30°   Wind: 12mph
Humidity: 65%   Direction: 260°W
Pressure: 29.85"   Gusts: NA
Location:  38.7501°N, 87.6141°W
Report Text: KLWV 242253Z AUTO 26010KT 10SM BKN055 05/M01 A2985 RMK AO2 SLP107 T00501011
Loading
Personal Weather Stations






























Interactive Weather Map New forecast layout! Learn more

10-Day Weather Forecast

Advertisements
Track Severe Weather on mobile